createdAt,value
2018-01-17T00:03:59.983Z,7.43
2018-01-17T00:09:04.416Z,6.00
2018-01-17T00:14:07.885Z,6.77
2018-01-17T00:19:12.492Z,2.67
2018-01-17T00:24:15.564Z,3.35
2018-01-17T00:29:18.640Z,3.87
2018-01-17T00:34:22.112Z,2.30
2018-01-17T00:39:25.591Z,2.63
2018-01-17T00:44:28.671Z,2.03
2018-01-17T00:49:31.765Z,2.00
2018-01-17T00:54:35.234Z,4.10
2018-01-17T00:59:38.712Z,2.53
2018-01-17T01:04:43.135Z,1.70
2018-01-17T01:09:47.019Z,2.53
2018-01-17T01:14:50.105Z,2.87
2018-01-17T01:19:54.808Z,1.77
2018-01-17T01:24:58.733Z,1.60
2018-01-17T01:30:03.331Z,1.50
2018-01-17T01:35:06.415Z,1.60
2018-01-17T01:40:10.257Z,1.40
2018-01-17T01:45:14.695Z,1.50
2018-01-17T01:50:18.173Z,1.40
2018-01-17T01:55:22.561Z,1.40
2018-01-17T02:00:27.026Z,1.50
2018-01-17T02:05:30.496Z,1.60
2018-01-17T02:10:33.968Z,1.80
2018-01-17T02:15:38.180Z,2.57
2018-01-17T02:20:42.409Z,1.53
2018-01-17T02:25:46.413Z,1.97
2018-01-17T02:30:50.995Z,2.10
2018-01-17T02:35:55.744Z,3.07
2018-01-17T02:41:00.149Z,3.58
2018-01-17T02:46:04.731Z,5.80
2018-01-17T02:51:08.210Z,3.70
2018-01-17T02:56:13.284Z,3.73
2018-01-17T03:01:17.289Z,5.00
2018-01-17T03:06:20.764Z,4.23
2018-01-17T03:11:24.142Z,6.40
2018-01-17T03:16:29.281Z,4.47
2018-01-17T03:21:33.703Z,4.10
2018-01-17T03:26:37.187Z,4.57
2018-01-17T03:31:41.152Z,4.97
2018-01-17T03:36:45.032Z,3.17
2018-01-17T03:41:49.616Z,5.93
2018-01-17T03:46:53.470Z,6.47
2018-01-17T03:51:57.308Z,6.17
2018-01-17T03:57:00.389Z,4.23
2018-01-17T04:02:03.493Z,3.23
2018-01-17T04:07:06.593Z,3.63
2018-01-17T04:12:09.672Z,3.93
2018-01-17T04:17:14.120Z,3.10
2018-01-17T04:22:17.969Z,5.97
2018-01-17T04:27:22.181Z,5.83
2018-01-17T04:32:26.046Z,3.77
2018-01-17T04:37:30.653Z,6.60
2018-01-17T04:42:36.008Z,6.47
2018-01-17T04:47:40.613Z,4.90
2018-01-17T04:52:45.603Z,4.65
2018-01-17T04:57:49.085Z,5.53
2018-01-17T05:02:53.707Z,4.83
2018-01-17T05:07:59.365Z,2.90
2018-01-17T05:13:03.383Z,3.15
2018-01-17T05:18:06.577Z,6.27
2018-01-17T05:23:09.652Z,2.00
2018-01-17T05:28:12.744Z,2.37
2018-01-17T05:33:15.868Z,2.73
2018-01-17T05:38:20.287Z,3.37
2018-01-17T05:43:23.375Z,2.60
2018-01-17T05:48:26.839Z,2.70
2018-01-17T05:53:31.271Z,3.80
2018-01-17T05:58:36.000Z,2.90
2018-01-17T06:03:40.422Z,8.70
2018-01-17T06:08:45.057Z,2.80
2018-01-17T06:13:49.675Z,3.17
2018-01-17T06:18:53.174Z,6.37
2018-01-17T06:23:57.011Z,5.40
2018-01-17T06:29:00.088Z,7.33
2018-01-17T06:34:03.927Z,3.73
2018-01-17T06:39:07.024Z,3.47
2018-01-17T06:44:10.109Z,3.70
2018-01-17T06:49:14.528Z,3.10
2018-01-17T06:54:18.009Z,5.10
2018-01-17T06:59:22.231Z,4.82
2018-01-17T07:04:25.327Z,4.67
2018-01-17T07:09:28.411Z,7.33
2018-01-17T07:14:31.497Z,7.73
2018-01-17T07:19:35.942Z,11.37
2018-01-17T07:24:39.742Z,8.67
2018-01-17T07:29:43.225Z,9.60
2018-01-17T07:34:47.207Z,8.73
2018-01-17T07:39:51.641Z,5.23
2018-01-17T07:44:56.066Z,3.70
2018-01-17T07:49:59.287Z,11.47
2018-01-17T07:55:03.495Z,4.17
2018-01-17T08:00:06.575Z,3.40
2018-01-17T08:05:09.652Z,4.73
2018-01-17T08:10:13.507Z,7.80
2018-01-17T08:15:16.589Z,6.17
2018-01-17T08:20:21.037Z,6.23
2018-01-17T08:25:25.777Z,4.57
2018-01-17T08:30:28.864Z,5.33
2018-01-17T08:35:33.295Z,6.10
2018-01-17T08:40:36.780Z,7.80
2018-01-17T08:45:39.894Z,5.72
2018-01-17T08:50:43.731Z,7.85
2018-01-17T08:55:47.064Z,9.70
2018-01-17T09:00:50.555Z,10.43
2018-01-17T09:05:54.976Z,10.00
2018-01-17T09:10:58.445Z,8.00
2018-01-17T09:16:02.879Z,13.40
2018-01-17T09:21:07.310Z,8.67
2018-01-17T09:26:11.735Z,8.37
2018-01-17T09:31:16.815Z,9.18
2018-01-17T09:36:21.244Z,10.73
2018-01-17T09:41:25.824Z,10.33
2018-01-17T09:46:29.128Z,12.77
2018-01-17T09:51:33.716Z,10.73
2018-01-17T09:56:36.808Z,5.30
2018-01-17T10:01:39.903Z,12.70
2018-01-17T10:06:43.815Z,8.97
2018-01-17T10:11:48.120Z,6.60
2018-01-17T10:16:51.969Z,10.37
2018-01-17T10:21:56.188Z,12.67
2018-01-17T10:27:00.034Z,8.80
2018-01-17T10:32:03.152Z,12.77
2018-01-17T10:37:06.237Z,12.33
2018-01-17T10:42:10.461Z,12.43
2018-01-17T10:47:14.296Z,12.60
2018-01-17T10:52:17.428Z,16.57
2018-01-17T10:57:21.229Z,11.63
2018-01-17T11:02:25.672Z,15.93
2018-01-17T11:07:28.761Z,13.33
2018-01-17T11:12:32.239Z,10.87
2018-01-17T11:17:35.328Z,14.13
2018-01-17T11:22:39.744Z,9.98
2018-01-17T11:27:43.242Z,13.17
2018-01-17T11:32:46.311Z,12.07
2018-01-17T11:37:50.533Z,7.13
2018-01-17T11:42:54.964Z,11.23
2018-01-17T11:47:58.764Z,12.60
2018-01-17T11:53:02.615Z,10.88
2018-01-17T11:58:07.048Z,11.17
2018-01-17T12:03:10.150Z,7.93
2018-01-17T12:08:14.360Z,9.80
2018-01-17T12:13:17.890Z,7.00
2018-01-17T12:18:21.366Z,9.13
2018-01-17T12:23:25.584Z,10.50
2018-01-17T12:28:29.444Z,10.70
2018-01-17T12:33:33.867Z,8.23
2018-01-17T12:38:37.726Z,8.77
2018-01-17T12:43:42.310Z,7.07
2018-01-17T12:48:47.196Z,6.13
2018-01-17T12:53:51.399Z,7.77
2018-01-17T12:58:55.908Z,10.87
2018-01-17T13:03:59.759Z,9.95
2018-01-17T13:09:04.192Z,14.30
2018-01-17T13:14:07.660Z,14.63
2018-01-17T13:19:11.528Z,12.00
2018-01-17T13:24:14.616Z,11.47
2018-01-17T13:29:18.095Z,13.97
2018-01-17T13:34:22.733Z,13.43
2018-01-17T13:39:26.945Z,16.67
2018-01-17T13:44:30.024Z,17.08
2018-01-17T13:49:34.461Z,10.80
2018-01-17T13:54:37.936Z,11.97
2018-01-17T13:59:41.030Z,6.13
2018-01-17T14:04:45.265Z,13.50
2018-01-17T14:09:49.508Z,10.27
2018-01-17T14:14:52.997Z,9.27
2018-01-17T14:19:56.080Z,13.13
2018-01-17T14:24:59.931Z,17.57
2018-01-17T14:30:03.032Z,12.77
2018-01-17T14:35:06.251Z,9.73
2018-01-17T14:40:10.110Z,11.60
2018-01-17T14:45:13.948Z,10.60
2018-01-17T14:50:18.168Z,8.48
2018-01-17T14:55:22.007Z,5.83
2018-01-17T15:00:25.108Z,9.13
2018-01-17T15:05:28.196Z,10.07
2018-01-17T15:10:32.060Z,6.83
2018-01-17T15:15:35.182Z,9.57
2018-01-17T15:20:39.678Z,10.20
2018-01-17T15:25:43.150Z,5.77
2018-01-17T15:30:46.230Z,11.47
2018-01-17T15:35:50.443Z,9.87
2018-01-17T15:40:54.720Z,9.40
2018-01-17T15:45:58.549Z,15.63
2018-01-17T15:51:02.199Z,11.63
2018-01-17T15:56:06.412Z,9.80
2018-01-17T16:01:09.516Z,12.30
2018-01-17T16:06:13.946Z,12.40
2018-01-17T16:11:18.528Z,11.83
2018-01-17T16:16:22.379Z,11.30
2018-01-17T16:21:26.798Z,15.13
2018-01-17T16:26:30.635Z,11.53
2018-01-17T16:31:34.480Z,16.23
2018-01-17T16:36:37.556Z,11.10
2018-01-17T16:41:41.571Z,10.87
2018-01-17T16:46:45.406Z,9.30
2018-01-17T16:51:48.883Z,9.87
2018-01-17T16:56:53.300Z,11.60
2018-01-17T17:01:57.900Z,7.33
2018-01-17T17:07:01.368Z,9.60
2018-01-17T17:12:04.439Z,9.33
2018-01-17T17:17:07.675Z,13.20
2018-01-17T17:22:11.528Z,12.93
2018-01-17T17:27:14.600Z,12.77
2018-01-17T17:32:18.076Z,12.43
2018-01-17T17:37:22.503Z,9.40
2018-01-17T17:42:26.942Z,15.87
2018-01-17T17:47:31.163Z,8.57
2018-01-17T17:52:35.604Z,9.70
2018-01-17T17:57:40.954Z,10.15
2018-01-17T18:02:44.043Z,14.57
2018-01-17T18:07:48.470Z,12.75
2018-01-17T18:12:52.312Z,10.27
2018-01-17T18:17:55.787Z,17.80
2018-01-17T18:23:00.018Z,13.47
2018-01-17T18:28:03.870Z,10.43
2018-01-17T18:33:06.957Z,11.30
2018-01-17T18:38:10.046Z,12.13
2018-01-17T18:43:14.268Z,10.57
2018-01-17T18:48:18.196Z,10.07
2018-01-17T18:53:22.399Z,14.50
2018-01-17T18:58:25.691Z,10.80
2018-01-17T19:03:28.779Z,13.07
2018-01-17T19:08:31.863Z,12.57
2018-01-17T19:13:36.086Z,11.50
2018-01-17T19:18:39.931Z,9.55
2018-01-17T19:23:44.388Z,11.23
2018-01-17T19:28:48.883Z,11.10
2018-01-17T19:33:53.103Z,13.63
2018-01-17T19:38:56.183Z,10.60
2018-01-17T19:44:00.619Z,8.32
2018-01-17T19:49:04.472Z,9.10
2018-01-17T19:54:08.916Z,12.10
2018-01-17T19:59:12.157Z,12.27
2018-01-17T20:04:16.360Z,12.70
2018-01-17T20:09:19.831Z,14.00
2018-01-17T20:14:24.414Z,9.93
2018-01-17T20:19:29.099Z,15.20
2018-01-17T20:24:32.188Z,14.97
2018-01-17T20:29:36.775Z,17.50
2018-01-17T20:34:40.279Z,11.70
2018-01-17T20:39:44.814Z,15.47
2018-01-17T20:44:49.239Z,15.10
2018-01-17T20:49:53.675Z,17.83
2018-01-17T20:54:57.559Z,16.07
2018-01-17T21:00:01.779Z,17.40
2018-01-17T21:05:06.375Z,15.70
2018-01-17T21:10:10.608Z,16.27
2018-01-17T21:15:15.031Z,22.53
2018-01-17T21:20:20.276Z,18.58
2018-01-17T21:25:24.487Z,19.97
2018-01-17T21:30:28.712Z,21.43
2018-01-17T21:35:31.808Z,14.23
2018-01-17T21:40:36.235Z,17.43
2018-01-17T21:45:45.202Z,17.60
2018-01-17T21:50:49.643Z,15.87
2018-01-17T21:55:52.721Z,19.47
2018-01-17T22:00:57.377Z,20.47
2018-01-17T22:06:00.519Z,24.05
2018-01-17T22:11:04.920Z,22.27
2018-01-17T22:16:07.999Z,15.77
2018-01-17T22:21:11.467Z,17.80
2018-01-17T22:26:15.322Z,20.80
2018-01-17T22:31:19.552Z,18.67
2018-01-17T22:36:23.983Z,17.53
2018-01-17T22:41:28.411Z,18.30
2018-01-17T22:46:31.974Z,18.17
2018-01-17T22:51:36.348Z,15.57
2018-01-17T22:56:39.831Z,14.83
2018-01-17T23:01:44.356Z,14.43
2018-01-17T23:06:47.847Z,15.13
2018-01-17T23:11:51.703Z,16.80
2018-01-17T23:16:55.538Z,13.23
2018-01-17T23:21:59.971Z,16.10
2018-01-17T23:27:03.086Z,17.57
2018-01-17T23:32:06.551Z,11.00
2018-01-17T23:37:09.734Z,13.37
2018-01-17T23:42:14.016Z,16.60
2018-01-17T23:47:18.458Z,15.57
2018-01-17T23:52:22.166Z,16.77
2018-01-17T23:57:25.647Z,16.87
